sensor_id;sensor_type;location;lat;lon;timestamp;pressure;altitude;pressure_sealevel;temperature;humidity
76424;BME280;65257;52.104;4.268;2022-12-29T00:00:01;56264.09;;;-142.31;100.00
76424;BME280;65257;52.104;4.268;2022-12-29T00:02:27;56264.09;;;-142.31;100.00
76424;BME280;65257;52.104;4.268;2022-12-29T00:04:52;56264.09;;;-142.31;100.00
76424;BME280;65257;52.104;4.268;2022-12-29T00:07:18;56264.09;;;-142.31;100.00
76424;BME280;65257;52.104;4.268;2022-12-29T00:09:44;56264.09;;;-142.31;100.00
76424;BME280;65257;52.104;4.268;2022-12-29T00:12:10;56264.09;;;-142.31;100.00
76424;BME280;65257;52.104;4.268;2022-12-29T00:14:35;56264.09;;;-142.31;100.00
76424;BME280;65257;52.104;4.268;2022-12-29T00:17:23;56264.09;;;-142.31;100.00
76424;BME280;65257;52.104;4.268;2022-12-29T00:19:48;56264.09;;;-142.31;100.00
76424;BME280;65257;52.104;4.268;2022-12-29T00:22:32;56264.09;;;-142.31;100.00
76424;BME280;65257;52.104;4.268;2022-12-29T00:25:16;56264.09;;;-142.31;100.00
76424;BME280;65257;52.104;4.268;2022-12-29T00:28:00;56264.09;;;-142.31;100.00
76424;BME280;65257;52.104;4.268;2022-12-29T00:30:47;56264.09;;;-142.31;100.00
76424;BME280;65257;52.104;4.268;2022-12-29T00:33:35;56264.09;;;-142.31;100.00
76424;BME280;65257;52.104;4.268;2022-12-29T00:36:48;56264.09;;;-142.31;100.00
76424;BME280;65257;52.104;4.268;2022-12-29T00:39:18;56264.09;;;-142.31;100.00
76424;BME280;65257;52.104;4.268;2022-12-29T00:42:07;56264.09;;;-142.31;100.00
76424;BME280;65257;52.104;4.268;2022-12-29T00:44:51;56264.09;;;-142.31;100.00
76424;BME280;65257;52.104;4.268;2022-12-29T00:47:16;56264.09;;;-142.31;100.00
76424;BME280;65257;52.104;4.268;2022-12-29T00:49:42;56264.09;;;-142.31;100.00
76424;BME280;65257;52.104;4.268;2022-12-29T00:52:11;56264.09;;;-142.31;100.00
76424;BME280;65257;52.104;4.268;2022-12-29T00:54:38;56264.09;;;-142.31;100.00
76424;BME280;65257;52.104;4.268;2022-12-29T00:57:06;56264.09;;;-142.31;100.00
76424;BME280;65257;52.104;4.268;2022-12-29T00:59:35;56264.09;;;-142.31;100.00
76424;BME280;65257;52.104;4.268;2022-12-29T01:02:04;56264.09;;;-142.31;100.00
76424;BME280;65257;52.104;4.268;2022-12-29T01:04:29;56264.09;;;-142.31;100.00
76424;BME280;65257;52.104;4.268;2022-12-29T01:06:55;56264.09;;;-142.31;100.00
76424;BME280;65257;52.104;4.268;2022-12-29T01:09:20;56264.09;;;-142.31;100.00
76424;BME280;65257;52.104;4.268;2022-12-29T01:12:09;56264.09;;;-142.31;100.00
76424;BME280;65257;52.104;4.268;2022-12-29T01:14:38;56264.09;;;-142.31;100.00
76424;BME280;65257;52.104;4.268;2022-12-29T01:17:04;56264.09;;;-142.31;100.00
76424;BME280;65257;52.104;4.268;2022-12-29T01:19:30;56264.09;;;-142.31;100.00
76424;BME280;65257;52.104;4.268;2022-12-29T01:21:55;56264.09;;;-142.31;100.00
76424;BME280;65257;52.104;4.268;2022-12-29T01:24:21;56264.09;;;-142.31;100.00
76424;BME280;65257;52.104;4.268;2022-12-29T01:26:52;56264.09;;;-142.31;100.00
76424;BME280;65257;52.104;4.268;2022-12-29T01:29:22;56264.09;;;-142.31;100.00
76424;BME280;65257;52.104;4.268;2022-12-29T01:31:47;56264.09;;;-142.31;100.00
76424;BME280;65257;52.104;4.268;2022-12-29T01:34:17;56264.09;;;-142.31;100.00
76424;BME280;65257;52.104;4.268;2022-12-29T01:36:46;56264.09;;;-142.31;100.00
76424;BME280;65257;52.104;4.268;2022-12-29T01:39:12;56264.09;;;-142.31;100.00
76424;BME280;65257;52.104;4.268;2022-12-29T01:41:37;56264.09;;;-142.31;100.00
76424;BME280;65257;52.104;4.268;2022-12-29T01:44:46;56264.09;;;-142.31;100.00
76424;BME280;65257;52.104;4.268;2022-12-29T01:47:15;56264.09;;;-142.31;100.00
76424;BME280;65257;52.104;4.268;2022-12-29T01:49:44;56264.09;;;-142.31;100.00
76424;BME280;65257;52.104;4.268;2022-12-29T01:52:09;56264.09;;;-142.31;100.00
76424;BME280;65257;52.104;4.268;2022-12-29T01:54:47;56264.09;;;-142.31;100.00
76424;BME280;65257;52.104;4.268;2022-12-29T01:57:18;56264.09;;;-142.31;100.00
76424;BME280;65257;52.104;4.268;2022-12-29T01:59:53;56264.09;;;-142.31;100.00
76424;BME280;65257;52.104;4.268;2022-12-29T02:02:20;56264.09;;;-142.31;100.00
76424;BME280;65257;52.104;4.268;2022-12-29T02:04:46;56264.09;;;-142.31;100.00
76424;BME280;65257;52.104;4.268;2022-12-29T02:07:17;56264.09;;;-142.31;100.00
76424;BME280;65257;52.104;4.268;2022-12-29T02:09:47;56264.09;;;-142.31;100.00
76424;BME280;65257;52.104;4.268;2022-12-29T02:12:13;56264.09;;;-142.31;100.00
76424;BME280;65257;52.104;4.268;2022-12-29T02:14:39;56264.09;;;-142.31;100.00
76424;BME280;65257;52.104;4.268;2022-12-29T02:31:54;56264.09;;;-142.31;100.00
76424;BME280;65257;52.104;4.268;2022-12-29T02:35:04;56264.09;;;-142.31;100.00
76424;BME280;65257;52.104;4.268;2022-12-29T02:42:50;56264.09;;;-142.31;100.00
76424;BME280;65257;52.104;4.268;2022-12-29T02:45:46;56264.09;;;-142.31;100.00
76424;BME280;65257;52.104;4.268;2022-12-29T02:48:23;56264.09;;;-142.31;100.00
76424;BME280;65257;52.104;4.268;2022-12-29T02:51:04;56264.09;;;-142.31;100.00
76424;BME280;65257;52.104;4.268;2022-12-29T02:53:36;56264.09;;;-142.31;100.00
76424;BME280;65257;52.104;4.268;2022-12-29T02:56:20;56264.09;;;-142.31;100.00
76424;BME280;65257;52.104;4.268;2022-12-29T02:58:48;56264.09;;;-142.31;100.00
76424;BME280;65257;52.104;4.268;2022-12-29T03:04:13;56264.09;;;-142.31;100.00
76424;BME280;65257;52.104;4.268;2022-12-29T03:21:18;56264.09;;;-142.31;100.00
76424;BME280;65257;52.104;4.268;2022-12-29T03:23:49;56264.09;;;-142.31;100.00
76424;BME280;65257;52.104;4.268;2022-12-29T03:26:16;56264.09;;;-142.31;100.00
76424;BME280;65257;52.104;4.268;2022-12-29T03:28:55;56264.09;;;-142.31;100.00
76424;BME280;65257;52.104;4.268;2022-12-29T03:31:25;56264.09;;;-142.31;100.00
76424;BME280;65257;52.104;4.268;2022-12-29T03:33:52;56264.09;;;-142.31;100.00
76424;BME280;65257;52.104;4.268;2022-12-29T03:36:28;56264.09;;;-142.31;100.00
76424;BME280;65257;52.104;4.268;2022-12-29T03:39:09;56264.09;;;-142.31;100.00
76424;BME280;65257;52.104;4.268;2022-12-29T03:41:45;56264.09;;;-142.31;100.00
76424;BME280;65257;52.104;4.268;2022-12-29T03:44:12;56264.09;;;-142.31;100.00
76424;BME280;65257;52.104;4.268;2022-12-29T03:46:38;56264.09;;;-142.31;100.00
76424;BME280;65257;52.104;4.268;2022-12-29T03:49:04;56264.09;;;-142.31;100.00
76424;BME280;65257;52.104;4.268;2022-12-29T03:51:30;56264.09;;;-142.31;100.00
76424;BME280;65257;52.104;4.268;2022-12-29T03:53:56;56264.09;;;-142.31;100.00
76424;BME280;65257;52.104;4.268;2022-12-29T03:56:21;56264.09;;;-142.31;100.00
76424;BME280;65257;52.104;4.268;2022-12-29T03:58:50;56264.09;;;-142.31;100.00
76424;BME280;65257;52.104;4.268;2022-12-29T04:01:15;56264.09;;;-142.31;100.00
76424;BME280;65257;52.104;4.268;2022-12-29T04:03:41;56264.09;;;-142.31;100.00
76424;BME280;65257;52.104;4.268;2022-12-29T04:06:09;56264.09;;;-142.31;100.00
76424;BME280;65257;52.104;4.268;2022-12-29T04:08:35;56264.09;;;-142.31;100.00
76424;BME280;65257;52.104;4.268;2022-12-29T04:11:02;56264.09;;;-142.31;100.00
76424;BME280;65257;52.104;4.268;2022-12-29T04:13:29;56264.09;;;-142.31;100.00
76424;BME280;65257;52.104;4.268;2022-12-29T04:16:00;56264.09;;;-142.31;100.00
76424;BME280;65257;52.104;4.268;2022-12-29T04:18:26;56264.09;;;-142.31;100.00
76424;BME280;65257;52.104;4.268;2022-12-29T04:20:54;56264.09;;;-142.31;100.00
76424;BME280;65257;52.104;4.268;2022-12-29T04:23:32;56264.09;;;-142.31;100.00
76424;BME280;65257;52.104;4.268;2022-12-29T04:26:01;56264.09;;;-142.31;100.00
76424;BME280;65257;52.104;4.268;2022-12-29T04:28:29;56264.09;;;-142.31;100.00
76424;BME280;65257;52.104;4.268;2022-12-29T04:30:57;56264.09;;;-142.31;100.00
76424;BME280;65257;52.104;4.268;2022-12-29T04:33:23;56264.09;;;-142.31;100.00
76424;BME280;65257;52.104;4.268;2022-12-29T04:35:49;56264.09;;;-142.31;100.00
76424;BME280;65257;52.104;4.268;2022-12-29T04:38:18;56264.09;;;-142.31;100.00
76424;BME280;65257;52.104;4.268;2022-12-29T04:40:44;56264.09;;;-142.31;100.00
76424;BME280;65257;52.104;4.268;2022-12-29T04:43:10;56264.09;;;-142.31;100.00
76424;BME280;65257;52.104;4.268;2022-12-29T04:45:36;56264.09;;;-142.31;100.00
76424;BME280;65257;52.104;4.268;2022-12-29T04:48:01;56264.09;;;-142.31;100.00
76424;BME280;65257;52.104;4.268;2022-12-29T04:50:27;56264.09;;;-142.31;100.00
76424;BME280;65257;52.104;4.268;2022-12-29T04:52:56;56264.09;;;-142.31;100.00
76424;BME280;65257;52.104;4.268;2022-12-29T04:55:21;56264.09;;;-142.31;100.00
76424;BME280;65257;52.104;4.268;2022-12-29T04:57:48;56264.09;;;-142.31;100.00
76424;BME280;65257;52.104;4.268;2022-12-29T05:00:14;56264.09;;;-142.31;100.00
76424;BME280;65257;52.104;4.268;2022-12-29T05:02:43;56264.09;;;-142.31;100.00
76424;BME280;65257;52.104;4.268;2022-12-29T05:05:11;56264.09;;;-142.31;100.00
76424;BME280;65257;52.104;4.268;2022-12-29T05:07:37;56264.09;;;-142.31;100.00
76424;BME280;65257;52.104;4.268;2022-12-29T05:10:02;56264.09;;;-142.31;100.00
76424;BME280;65257;52.104;4.268;2022-12-29T05:12:36;56264.09;;;-142.31;100.00
76424;BME280;65257;52.104;4.268;2022-12-29T05:15:04;56264.09;;;-142.31;100.00
76424;BME280;65257;52.104;4.268;2022-12-29T05:17:32;56264.09;;;-142.31;100.00
76424;BME280;65257;52.104;4.268;2022-12-29T05:19:58;56264.09;;;-142.31;100.00
76424;BME280;65257;52.104;4.268;2022-12-29T05:22:24;56264.09;;;-142.31;100.00
76424;BME280;65257;52.104;4.268;2022-12-29T05:24:50;56264.09;;;-142.31;100.00
76424;BME280;65257;52.104;4.268;2022-12-29T05:27:15;56264.09;;;-142.31;100.00
76424;BME280;65257;52.104;4.268;2022-12-29T05:29:40;56264.09;;;-142.31;100.00
76424;BME280;65257;52.104;4.268;2022-12-29T05:32:06;56264.09;;;-142.31;100.00
76424;BME280;65257;52.104;4.268;2022-12-29T05:34:32;56264.09;;;-142.31;100.00
76424;BME280;65257;52.104;4.268;2022-12-29T05:36:57;56264.09;;;-142.31;100.00
76424;BME280;65257;52.104;4.268;2022-12-29T05:39:22;56264.09;;;-142.31;100.00
76424;BME280;65257;52.104;4.268;2022-12-29T05:41:48;56264.09;;;-142.31;100.00
76424;BME280;65257;52.104;4.268;2022-12-29T05:44:14;56264.09;;;-142.31;100.00
76424;BME280;65257;52.104;4.268;2022-12-29T05:46:39;56264.09;;;-142.31;100.00
76424;BME280;65257;52.104;4.268;2022-12-29T05:49:06;56264.09;;;-142.31;100.00
76424;BME280;65257;52.104;4.268;2022-12-29T05:51:33;56264.09;;;-142.31;100.00
76424;BME280;65257;52.104;4.268;2022-12-29T05:53:58;56264.09;;;-142.31;100.00
76424;BME280;65257;52.104;4.268;2022-12-29T05:56:24;56264.09;;;-142.31;100.00
76424;BME280;65257;52.104;4.268;2022-12-29T05:58:49;56264.09;;;-142.31;100.00
76424;BME280;65257;52.104;4.268;2022-12-29T06:01:15;56264.09;;;-142.31;100.00
76424;BME280;65257;52.104;4.268;2022-12-29T06:03:41;56264.09;;;-142.31;100.00
76424;BME280;65257;52.104;4.268;2022-12-29T06:06:07;56264.09;;;-142.31;100.00
76424;BME280;65257;52.104;4.268;2022-12-29T06:08:35;56264.09;;;-142.31;100.00
76424;BME280;65257;52.104;4.268;2022-12-29T06:11:01;56264.09;;;-142.31;100.00
76424;BME280;65257;52.104;4.268;2022-12-29T06:13:26;56264.09;;;-142.31;100.00
76424;BME280;65257;52.104;4.268;2022-12-29T06:15:52;56264.09;;;-142.31;100.00
76424;BME280;65257;52.104;4.268;2022-12-29T06:18:18;56264.09;;;-142.31;100.00
76424;BME280;65257;52.104;4.268;2022-12-29T06:20:47;56264.09;;;-142.31;100.00
76424;BME280;65257;52.104;4.268;2022-12-29T06:23:15;56264.09;;;-142.31;100.00
76424;BME280;65257;52.104;4.268;2022-12-29T06:25:46;56264.09;;;-142.31;100.00
76424;BME280;65257;52.104;4.268;2022-12-29T06:28:15;56264.09;;;-142.31;100.00
76424;BME280;65257;52.104;4.268;2022-12-29T06:30:44;56264.09;;;-142.31;100.00
76424;BME280;65257;52.104;4.268;2022-12-29T06:33:11;56264.09;;;-142.31;100.00
76424;BME280;65257;52.104;4.268;2022-12-29T06:35:37;56264.09;;;-142.31;100.00
76424;BME280;65257;52.104;4.268;2022-12-29T06:38:03;56264.09;;;-142.31;100.00
76424;BME280;65257;52.104;4.268;2022-12-29T06:40:29;56264.09;;;-142.31;100.00
76424;BME280;65257;52.104;4.268;2022-12-29T06:42:55;56264.09;;;-142.31;100.00
76424;BME280;65257;52.104;4.268;2022-12-29T06:45:20;56264.09;;;-142.31;100.00
76424;BME280;65257;52.104;4.268;2022-12-29T06:47:46;56264.09;;;-142.31;100.00
76424;BME280;65257;52.104;4.268;2022-12-29T06:50:12;56264.09;;;-142.31;100.00
76424;BME280;65257;52.104;4.268;2022-12-29T06:52:37;56264.09;;;-142.31;100.00
76424;BME280;65257;52.104;4.268;2022-12-29T06:55:06;56264.09;;;-142.31;100.00
76424;BME280;65257;52.104;4.268;2022-12-29T06:57:32;56264.09;;;-142.31;100.00
76424;BME280;65257;52.104;4.268;2022-12-29T06:59:58;56264.09;;;-142.31;100.00
76424;BME280;65257;52.104;4.268;2022-12-29T07:02:23;56264.09;;;-142.31;100.00
76424;BME280;65257;52.104;4.268;2022-12-29T07:04:51;56264.09;;;-142.31;100.00
76424;BME280;65257;52.104;4.268;2022-12-29T07:07:18;56264.09;;;-142.31;100.00
76424;BME280;65257;52.104;4.268;2022-12-29T07:09:50;56264.09;;;-142.31;100.00
76424;BME280;65257;52.104;4.268;2022-12-29T07:12:16;56264.09;;;-142.31;100.00
76424;BME280;65257;52.104;4.268;2022-12-29T07:14:41;56264.09;;;-142.31;100.00
76424;BME280;65257;52.104;4.268;2022-12-29T07:17:07;56264.09;;;-142.31;100.00
76424;BME280;65257;52.104;4.268;2022-12-29T07:19:33;56264.09;;;-142.31;100.00
76424;BME280;65257;52.104;4.268;2022-12-29T07:22:01;56264.09;;;-142.31;100.00
76424;BME280;65257;52.104;4.268;2022-12-29T07:24:27;56264.09;;;-142.31;100.00
76424;BME280;65257;52.104;4.268;2022-12-29T07:26:52;56264.09;;;-142.31;100.00
76424;BME280;65257;52.104;4.268;2022-12-29T07:29:18;56264.09;;;-142.31;100.00
76424;BME280;65257;52.104;4.268;2022-12-29T07:31:44;56264.09;;;-142.31;100.00
76424;BME280;65257;52.104;4.268;2022-12-29T07:34:12;56264.09;;;-142.31;100.00
76424;BME280;65257;52.104;4.268;2022-12-29T07:36:41;56264.09;;;-142.31;100.00
76424;BME280;65257;52.104;4.268;2022-12-29T07:39:06;56264.09;;;-142.31;100.00
76424;BME280;65257;52.104;4.268;2022-12-29T07:41:38;56264.09;;;-142.31;100.00
76424;BME280;65257;52.104;4.268;2022-12-29T07:44:08;56264.09;;;-142.31;100.00
76424;BME280;65257;52.104;4.268;2022-12-29T07:46:33;56264.09;;;-142.31;100.00
76424;BME280;65257;52.104;4.268;2022-12-29T07:48:59;56264.09;;;-142.31;100.00
76424;BME280;65257;52.104;4.268;2022-12-29T07:51:24;56264.09;;;-142.31;100.00
76424;BME280;65257;52.104;4.268;2022-12-29T07:53:50;56264.09;;;-142.31;100.00
76424;BME280;65257;52.104;4.268;2022-12-29T07:56:16;56264.09;;;-142.31;100.00
76424;BME280;65257;52.104;4.268;2022-12-29T07:58:42;56264.09;;;-142.31;100.00
76424;BME280;65257;52.104;4.268;2022-12-29T08:01:07;56264.09;;;-142.31;100.00
76424;BME280;65257;52.104;4.268;2022-12-29T08:03:34;56264.09;;;-142.31;100.00
76424;BME280;65257;52.104;4.268;2022-12-29T08:06:01;56264.09;;;-142.31;100.00
76424;BME280;65257;52.104;4.268;2022-12-29T08:08:29;56264.09;;;-142.31;100.00
76424;BME280;65257;52.104;4.268;2022-12-29T08:10:55;56264.09;;;-142.31;100.00
76424;BME280;65257;52.104;4.268;2022-12-29T08:13:24;56264.09;;;-142.31;100.00
76424;BME280;65257;52.104;4.268;2022-12-29T08:15:49;56264.09;;;-142.31;100.00
76424;BME280;65257;52.104;4.268;2022-12-29T08:18:19;56264.09;;;-142.31;100.00
76424;BME280;65257;52.104;4.268;2022-12-29T08:20:45;56264.09;;;-142.31;100.00
76424;BME280;65257;52.104;4.268;2022-12-29T08:23:10;56264.09;;;-142.31;100.00
76424;BME280;65257;52.104;4.268;2022-12-29T08:25:39;56264.09;;;-142.31;100.00
76424;BME280;65257;52.104;4.268;2022-12-29T08:28:04;56264.09;;;-142.31;100.00
76424;BME280;65257;52.104;4.268;2022-12-29T08:30:30;56264.09;;;-142.31;100.00
76424;BME280;65257;52.104;4.268;2022-12-29T08:32:58;56264.09;;;-142.31;100.00
76424;BME280;65257;52.104;4.268;2022-12-29T08:35:24;56264.09;;;-142.31;100.00
76424;BME280;65257;52.104;4.268;2022-12-29T08:37:49;56264.09;;;-142.31;100.00
76424;BME280;65257;52.104;4.268;2022-12-29T08:40:15;56264.09;;;-142.31;100.00
76424;BME280;65257;52.104;4.268;2022-12-29T08:42:40;56264.09;;;-142.31;100.00
76424;BME280;65257;52.104;4.268;2022-12-29T08:45:06;56264.09;;;-142.31;100.00
76424;BME280;65257;52.104;4.268;2022-12-29T08:47:33;56264.09;;;-142.31;100.00
76424;BME280;65257;52.104;4.268;2022-12-29T08:49:59;56264.09;;;-142.31;100.00
76424;BME280;65257;52.104;4.268;2022-12-29T08:52:24;56264.09;;;-142.31;100.00
76424;BME280;65257;52.104;4.268;2022-12-29T08:54:53;56264.09;;;-142.31;100.00
76424;BME280;65257;52.104;4.268;2022-12-29T08:57:18;56264.09;;;-142.31;100.00
76424;BME280;65257;52.104;4.268;2022-12-29T08:59:43;56264.09;;;-142.31;100.00
76424;BME280;65257;52.104;4.268;2022-12-29T09:02:12;56264.09;;;-142.31;100.00
76424;BME280;65257;52.104;4.268;2022-12-29T09:04:38;56264.09;;;-142.31;100.00
76424;BME280;65257;52.104;4.268;2022-12-29T09:07:04;56264.09;;;-142.31;100.00
76424;BME280;65257;52.104;4.268;2022-12-29T09:09:31;56264.09;;;-142.31;100.00
76424;BME280;65257;52.104;4.268;2022-12-29T09:11:57;56264.09;;;-142.31;100.00
76424;BME280;65257;52.104;4.268;2022-12-29T09:14:22;56264.09;;;-142.31;100.00
76424;BME280;65257;52.104;4.268;2022-12-29T09:16:51;56264.09;;;-142.31;100.00
76424;BME280;65257;52.104;4.268;2022-12-29T09:19:35;56264.09;;;-142.31;100.00
76424;BME280;65257;52.104;4.268;2022-12-29T09:22:00;56264.09;;;-142.31;100.00
76424;BME280;65257;52.104;4.268;2022-12-29T09:24:26;56264.09;;;-142.31;100.00
76424;BME280;65257;52.104;4.268;2022-12-29T09:26:54;56264.09;;;-142.31;100.00
76424;BME280;65257;52.104;4.268;2022-12-29T09:29:20;56264.09;;;-142.31;100.00
76424;BME280;65257;52.104;4.268;2022-12-29T09:31:48;56264.09;;;-142.31;100.00
76424;BME280;65257;52.104;4.268;2022-12-29T09:34:14;56264.09;;;-142.31;100.00
76424;BME280;65257;52.104;4.268;2022-12-29T09:36:39;56264.09;;;-142.31;100.00
76424;BME280;65257;52.104;4.268;2022-12-29T09:39:04;56264.09;;;-142.31;100.00
76424;BME280;65257;52.104;4.268;2022-12-29T09:41:38;56264.09;;;-142.31;100.00
76424;BME280;65257;52.104;4.268;2022-12-29T09:46:51;56264.09;;;-142.31;100.00
76424;BME280;65257;52.104;4.268;2022-12-29T09:52:11;56264.09;;;-142.31;100.00
76424;BME280;65257;52.104;4.268;2022-12-29T09:54:45;56264.09;;;-142.31;100.00
76424;BME280;65257;52.104;4.268;2022-12-29T09:57:26;56264.09;;;-142.31;100.00
76424;BME280;65257;52.104;4.268;2022-12-29T09:59:58;56264.09;;;-142.31;100.00
76424;BME280;65257;52.104;4.268;2022-12-29T10:02:43;56264.09;;;-142.31;100.00
76424;BME280;65257;52.104;4.268;2022-12-29T10:05:35;56264.09;;;-142.31;100.00
76424;BME280;65257;52.104;4.268;2022-12-29T10:14:20;56264.09;;;-142.31;100.00
76424;BME280;65257;52.104;4.268;2022-12-29T10:20:02;56264.09;;;-142.31;100.00
76424;BME280;65257;52.104;4.268;2022-12-29T10:25:32;56264.09;;;-142.31;100.00
76424;BME280;65257;52.104;4.268;2022-12-29T10:28:25;56264.09;;;-142.31;100.00
76424;BME280;65257;52.104;4.268;2022-12-29T10:30:56;56264.09;;;-142.31;100.00
76424;BME280;65257;52.104;4.268;2022-12-29T10:33:35;56264.09;;;-142.31;100.00
76424;BME280;65257;52.104;4.268;2022-12-29T10:36:13;56264.09;;;-142.31;100.00
76424;BME280;65257;52.104;4.268;2022-12-29T10:41:55;56264.09;;;-142.31;100.00
76424;BME280;65257;52.104;4.268;2022-12-29T10:44:27;56264.09;;;-142.31;100.00
76424;BME280;65257;52.104;4.268;2022-12-29T10:47:00;56264.09;;;-142.31;100.00
76424;BME280;65257;52.104;4.268;2022-12-29T10:49:30;56264.09;;;-142.31;100.00
76424;BME280;65257;52.104;4.268;2022-12-29T10:51:58;56264.09;;;-142.31;100.00
76424;BME280;65257;52.104;4.268;2022-12-29T10:57:27;56264.09;;;-142.31;100.00
76424;BME280;65257;52.104;4.268;2022-12-29T10:59:59;56264.09;;;-142.31;100.00
76424;BME280;65257;52.104;4.268;2022-12-29T11:08:20;56264.09;;;-142.31;100.00
76424;BME280;65257;52.104;4.268;2022-12-29T11:10:58;56264.09;;;-142.31;100.00
76424;BME280;65257;52.104;4.268;2022-12-29T11:13:26;56264.09;;;-142.31;100.00
76424;BME280;65257;52.104;4.268;2022-12-29T11:15:55;56264.09;;;-142.31;100.00
76424;BME280;65257;52.104;4.268;2022-12-29T11:18:36;56264.09;;;-142.31;100.00
76424;BME280;65257;52.104;4.268;2022-12-29T11:21:06;56264.09;;;-142.31;100.00
76424;BME280;65257;52.104;4.268;2022-12-29T11:23:40;56264.09;;;-142.31;100.00
76424;BME280;65257;52.104;4.268;2022-12-29T11:26:26;56264.09;;;-142.31;100.00
76424;BME280;65257;52.104;4.268;2022-12-29T11:31:53;56264.09;;;-142.31;100.00
76424;BME280;65257;52.104;4.268;2022-12-29T11:34:32;56264.09;;;-142.31;100.00
76424;BME280;65257;52.104;4.268;2022-12-29T11:37:06;56264.09;;;-142.31;100.00
76424;BME280;65257;52.104;4.268;2022-12-29T11:42:03;56264.09;;;-142.31;100.00
76424;BME280;65257;52.104;4.268;2022-12-29T11:44:37;56264.09;;;-142.31;100.00
76424;BME280;65257;52.104;4.268;2022-12-29T11:47:06;56264.09;;;-142.31;100.00
76424;BME280;65257;52.104;4.268;2022-12-29T11:49:34;56264.09;;;-142.31;100.00
76424;BME280;65257;52.104;4.268;2022-12-29T11:51:59;56264.09;;;-142.31;100.00
76424;BME280;65257;52.104;4.268;2022-12-29T11:54:31;56264.09;;;-142.31;100.00
76424;BME280;65257;52.104;4.268;2022-12-29T11:57:11;56264.09;;;-142.31;100.00
76424;BME280;65257;52.104;4.268;2022-12-29T11:59:41;56264.09;;;-142.31;100.00
76424;BME280;65257;52.104;4.268;2022-12-29T12:02:30;56264.09;;;-142.31;100.00
76424;BME280;65257;52.104;4.268;2022-12-29T12:05:11;56264.09;;;-142.31;100.00
76424;BME280;65257;52.104;4.268;2022-12-29T12:07:59;56264.09;;;-142.31;100.00
76424;BME280;65257;52.104;4.268;2022-12-29T12:10:31;56264.09;;;-142.31;100.00
76424;BME280;65257;52.104;4.268;2022-12-29T12:13:13;56264.09;;;-142.31;100.00
76424;BME280;65257;52.104;4.268;2022-12-29T12:15:57;56264.09;;;-142.31;100.00
76424;BME280;65257;52.104;4.268;2022-12-29T12:18:41;56264.09;;;-142.31;100.00
76424;BME280;65257;52.104;4.268;2022-12-29T12:26:32;56264.09;;;-142.31;100.00
76424;BME280;65257;52.104;4.268;2022-12-29T12:29:09;56264.09;;;-142.31;100.00
76424;BME280;65257;52.104;4.268;2022-12-29T12:31:43;56264.09;;;-142.31;100.00
76424;BME280;65257;52.104;4.268;2022-12-29T12:34:15;56264.09;;;-142.31;100.00
76424;BME280;65257;52.104;4.268;2022-12-29T12:39:27;56264.09;;;-142.31;100.00
76424;BME280;65257;52.104;4.268;2022-12-29T12:42:22;56264.09;;;-142.31;100.00
76424;BME280;65257;52.104;4.268;2022-12-29T12:50:26;56264.09;;;-142.31;100.00
76424;BME280;65257;52.104;4.268;2022-12-29T12:53:06;56264.09;;;-142.31;100.00
76424;BME280;65257;52.104;4.268;2022-12-29T13:01:10;56264.09;;;-142.31;100.00
76424;BME280;65257;52.104;4.268;2022-12-29T13:06:05;100258.50;;;10.06;77.52
76424;BME280;65257;52.104;4.268;2022-12-29T13:09:07;100257.75;;;10.10;77.32
76424;BME280;65257;52.104;4.268;2022-12-29T13:11:49;100253.72;;;10.17;76.71
76424;BME280;65257;52.104;4.268;2022-12-29T13:17:14;100255.88;;;10.03;77.34
76424;BME280;65257;52.104;4.268;2022-12-29T13:19:51;100272.44;;;9.86;78.04
76424;BME280;65257;52.104;4.268;2022-12-29T13:22:25;100267.56;;;9.95;78.36
76424;BME280;65257;52.104;4.268;2022-12-29T13:28:01;100259.28;;;9.74;79.53
76424;BME280;65257;52.104;4.268;2022-12-29T13:30:34;100266.94;;;9.74;80.74
76424;BME280;65257;52.104;4.268;2022-12-29T13:36:08;100267.22;;;9.83;80.50
76424;BME280;65257;52.104;4.268;2022-12-29T13:38:51;100266.94;;;9.74;80.33
76424;BME280;65257;52.104;4.268;2022-12-29T13:41:27;100270.59;;;9.82;80.28
76424;BME280;65257;52.104;4.268;2022-12-29T13:43:55;100272.94;;;9.74;79.71
76424;BME280;65257;52.104;4.268;2022-12-29T13:46:28;100282.19;;;9.71;79.70
76424;BME280;65257;52.104;4.268;2022-12-29T13:51:26;100260.72;;;9.64;80.33
76424;BME280;65257;52.104;4.268;2022-12-29T13:54:40;100259.94;;;9.67;79.97
76424;BME280;65257;52.104;4.268;2022-12-29T13:57:16;100262.41;;;9.64;81.71
76424;BME280;65257;52.104;4.268;2022-12-29T13:59:57;100259.69;;;9.58;82.15
76424;BME280;65257;52.104;4.268;2022-12-29T14:07:47;100251.03;;;9.53;82.29
76424;BME280;65257;52.104;4.268;2022-12-29T14:13:28;100256.03;;;9.50;82.10
76424;BME280;65257;52.104;4.268;2022-12-29T14:15:56;100261.72;;;9.41;82.25
76424;BME280;65257;52.104;4.268;2022-12-29T14:18:28;100260.16;;;9.46;82.08
76424;BME280;65257;52.104;4.268;2022-12-29T14:21:09;100260.94;;;9.43;82.29
76424;BME280;65257;52.104;4.268;2022-12-29T14:28:36;100270.28;;;9.43;82.29
76424;BME280;65257;52.104;4.268;2022-12-29T14:36:34;100280.50;;;9.43;81.86
76424;BME280;65257;52.104;4.268;2022-12-29T14:39:00;100275.72;;;9.54;81.96
76424;BME280;65257;52.104;4.268;2022-12-29T14:41:37;100283.28;;;9.51;82.17
76424;BME280;65257;52.104;4.268;2022-12-29T14:44:20;100281.38;;;9.43;82.39
76424;BME280;65257;52.104;4.268;2022-12-29T14:46:54;100295.78;;;9.41;83.45
76424;BME280;65257;52.104;4.268;2022-12-29T14:49:46;100288.66;;;9.31;82.98
76424;BME280;65257;52.104;4.268;2022-12-29T14:52:18;100308.25;;;9.32;82.70
76424;BME280;65257;52.104;4.268;2022-12-29T14:54:50;100310.75;;;9.31;82.32